Campiña-No se requiere un especial cuidado respecto a la situación meteorológica.   -   No hay avisos

Informes METAR

 

LEZL - Sevilla, Spain
Distancia de la estación: ENE 8km
Actualización: 17/09/2019 02:30
Despejado
Despejado
 Viento de S
Viento: S 13 km/h
Temperatura: 22°C
Rocío: 17°C
Humedad: 73%
Barómetro: 1016 hPa
Nubes: Despejado
Visibilidad: 10 km
2019/09/17 00:30 LEZL 170030Z AUTO 18007KT 9999 NCD 22/17 Q1016
LEMO - Morón, Spain
Distancia de la estación: SE 43km
Actualización: 17/09/2019 02:00
Despejado
Despejado
 Viento de SSO
Viento: SSO 9 km/h
Temperatura: 22°C
Rocío: 15°C
Humedad: 65%
Barómetro: 1017 hPa
Resumen: Despejado
Visibilidad: mayor de 10 km
2019/09/17 00:00 LEMO 170000Z 20005KT 170V230 CAVOK 22/15 Q1017 NOSIG
LEJR - Jeréz, Spain
Distancia de la estación: S 71km
Actualización: 17/09/2019 02:30
Despejado
Despejado
 Viento de ENE
Viento: ENE 4 km/h
Temperatura: 20°C
Rocío: 18°C
Humedad: 88%
Barómetro: 1017 hPa
Resumen: Despejado
Visibilidad: mayor de 10 km
2019/09/17 00:30 LEJR 170030Z AUTO 07002KT CAVOK 20/18 Q1017
 
LERT - Rota, Spain
Distancia de la estación: SSO 89km
Actualización: 17/09/2019 02:00
Parcialmente nuboso
Parcialmente nuboso
 Viento de calm
Viento: Calma
Temperatura: 21°C
Rocío: 20°C
Humedad: 94%
Barómetro: 1017 hPa
Nubes: Parcialmente nuboso
Visibilidad: 7 km
2019/09/17 00:00 LERT 170000Z 00000KT 7000 NSC 21/20 Q1017 NOSIG
LEMG - Málaga, Spain
Distancia de la estación: ESE 157km
Actualización: 17/09/2019 02:30
Poco nuboso
Poco nuboso
 Viento de ONO
Viento: ONO 7 km/h
Temperatura: 22°C
Rocío: 19°C
Humedad: 83%
Barómetro: 1018 hPa
Nubes: Poco nuboso
Visibilidad: 10 km
Detalles de las nubes: Poco nuboso 914 m
2019/09/17 00:30 LEMG 170030Z 30004KT 9999 FEW030 22/19 Q1018 NOSIG
LEBA - Córdoba, Spain
Distancia de la estación: ENE 115km
Actualización: 17/09/2019 02:30
Despejado
Despejado
 Viento de NNE
Viento: NNE 6 km/h
Temperatura: 22°C
Rocío: 18°C
Humedad: 78%
Barómetro: 1017 hPa
Resumen: Despejado
Visibilidad: mayor de 10 km
2019/09/17 00:30 LEBA 170030Z AUTO 02003KT CAVOK 22/18 Q1017
 
LEGR - Granada, Spain
Distancia de la estación: E 198km
Actualización: 17/09/2019 02:30
Despejado
Despejado
 Viento de calm
Viento: Calma
Temperatura: 19°C
Rocío: 17°C
Humedad: 88%
Barómetro: 1020 hPa
Resumen: Despejado
Visibilidad: mayor de 10 km
2019/09/17 00:30 LEGR 170030Z AUTO 00000KT CAVOK 19/17 Q1020
LEAM - Almería, Spain
Distancia de la estación: E 326km
Actualización: 17/09/2019 02:30
Despejado
Despejado
 Viento de variable
Viento: variable 4 km/h
Temperatura: 23°C
Rocío: 20°C
Humedad: 83%
Barómetro: 1017 hPa
Nubes: Despejado
Visibilidad: 10 km
2019/09/17 00:30 LEAM 170030Z AUTO VRB02KT 9999 NCD 23/20 Q1017
LEMD - Madrid/Barajas, Spain
Distancia de la estación: NNE 402km
Actualización: 17/09/2019 02:30
Despejado
Despejado
 Viento de N
Viento: N 6 km/h
Temperatura: 17°C
Rocío: 15°C
Humedad: 88%
Barómetro: 1020 hPa
Resumen: Despejado
Visibilidad: mayor de 10 km
2019/09/17 00:30 LEMD 170030Z 01003KT CAVOK 17/15 Q1020 NOSIG
 
LEVD - Valladolid, Spain
Distancia de la estación: N 492km
Actualización: 16/09/2019 21:30
NOT Current
Despejado
Despejado
 Viento de SSO
Viento: SSO 6 km/h
Temperatura: 19°C
Rocío: 14°C
Humedad: 73%
Barómetro: 1021 hPa
Resumen: Despejado
Visibilidad: mayor de 10 km
2019/09/16 19:30 LEVD 161930Z 21003KT CAVOK 19/14 Q1021
LEBL - Barcelona, Spain
Distancia de la estación: NE 816km
Actualización: 17/09/2019 02:30
Poco nuboso
Poco nuboso
 Viento de NNO
Viento: NNO 7 km/h
Temperatura: 20°C
Rocío: 13°C
Humedad: 64%
Barómetro: 1017 hPa
Nubes: Poco nuboso
Visibilidad: 10 km
Detalles de las nubes: Poco nuboso 914 m
2019/09/17 00:30 LEBL 170030Z 33004KT 9999 FEW030 20/13 Q1017 NOSIG
LEVC - Valencia, Spain
Distancia de la estación: ENE 535km
Actualización: 17/09/2019 02:30
Poco nuboso
Poco nuboso
 Viento de ONO
Viento: ONO 4 km/h
Temperatura: 21°C
Rocío: 20°C
Humedad: 94%
Barómetro: 1018 hPa
Nubes: Poco nuboso
Visibilidad: 9 km
Detalles de las nubes: Poco nuboso 914 m
2019/09/17 00:30 LEVC 170030Z 29002KT 9000 FEW030 21/20 Q1018 NOSIG